Time;durP1;ratioP1;P1;durP2;ratioP2;P2;SDS_P1;SDS_P2;PMS_P1;PMS_P2;Temp;Humidity;BMP_temperature;BMP_pressure;BME280_temperature;BME280_humidity;BME280_pressure;Samples;Min_cycle;Max_cycle;Signal;HPM_P1;HPM_P2
2022/09/24 00:01:07;;;;;;;3.30;3.00;;;;;;;;;;5015102;28;20207;-83
2022/09/24 00:03:34;;;;;;;3.40;2.60;;;;;;;;;;5023553;28;20209;-82
2022/09/24 00:06:03;;;;;;;2.50;2.30;;;;;;;;;;5031233;28;20350;-83
2022/09/24 00:08:31;;;;;;;2.58;2.30;;;;;;;;;;5025879;28;20663;-82
2022/09/24 00:11:04;;;;;;;3.35;2.58;;;;;;;;;;5032144;28;20648;-83
2022/09/24 00:13:32;;;;;;;2.90;2.70;;;;;;;;;;5028676;28;20218;-82
2022/09/24 00:16:06;;;;;;;3.08;2.85;;;;;;;;;;5013340;28;20203;-82
2022/09/24 00:18:33;;;;;;;2.60;2.40;;;;;;;;;;5021095;28;20710;-82
2022/09/24 00:21:10;;;;;;;3.17;2.88;;;;;;;;;;5014880;28;20198;-82
2022/09/24 00:23:38;;;;;;;4.90;2.83;;;;;;;;;;5033146;28;20686;-82
2022/09/24 00:28:54;;;;;;;4.13;3.47;;;;;;;;;;5002747;28;20222;-83
2022/09/24 00:31:21;;;;;;;3.53;3.22;;;;;;;;;;5031023;28;20289;-82
2022/09/24 00:33:51;;;;;;;2.55;2.35;;;;;;;;;;5032799;28;20285;-83
2022/09/24 00:36:20;;;;;;;2.83;2.63;;;;;;;;;;5028368;28;20199;-82
2022/09/24 00:38:51;;;;;;;2.40;2.20;;;;;;;;;;5021312;28;20206;-82
2022/09/24 00:41:22;;;;;;;2.58;2.35;;;;;;;;;;5014180;28;20210;-82
2022/09/24 00:43:50;;;;;;;2.95;2.60;;;;;;;;;;5021427;28;20210;-83
2022/09/24 00:46:24;;;;;;;2.40;2.20;;;;;;;;;;5011969;28;20199;-83
2022/09/24 00:48:54;;;;;;;3.83;2.70;;;;;;;;;;5011566;28;20253;-83
2022/09/24 00:51:23;;;;;;;2.85;2.65;;;;;;;;;;5011922;28;20320;-84
2022/09/24 00:53:54;;;;;;;2.40;2.20;;;;;;;;;;5020412;28;20305;-84
2022/09/24 00:56:23;;;;;;;2.65;2.42;;;;;;;;;;5012059;28;20191;-83
2022/09/24 00:58:55;;;;;;;4.63;2.38;;;;;;;;;;5013405;28;20674;-83
2022/09/24 01:01:25;;;;;;;2.33;1.90;;;;;;;;;;5012468;28;20238;-83
2022/09/24 01:03:56;;;;;;;2.00;1.90;;;;;;;;;;5023115;28;20278;-83
2022/09/24 01:06:24;;;;;;;2.13;1.90;;;;;;;;;;5012299;28;20558;-82
2022/09/24 01:08:52;;;;;;;1.33;1.23;;;;;;;;;;5013653;28;20313;-83
2022/09/24 01:11:46;;;;;;;2.28;2.08;;;;;;;;;;4977480;28;1078629;-82
2022/09/24 01:14:47;;;;;;;2.20;2.00;;;;;;;;;;5028306;28;20689;-83
2022/09/24 01:17:23;;;;;;;1.65;1.55;;;;;;;;;;5031583;28;20678;-82
2022/09/24 01:20:41;;;;;;;1.77;1.67;;;;;;;;;;5027637;28;20214;-83
2022/09/24 01:23:38;;;;;;;1.67;1.42;;;;;;;;;;5012547;28;20195;-83
2022/09/24 01:26:18;;;;;;;1.83;1.73;;;;;;;;;;5013112;28;20194;-83
2022/09/24 01:29:05;;;;;;;2.40;1.80;;;;;;;;;;5016518;28;20210;-83
2022/09/24 01:31:36;;;;;;;5.65;2.90;;;;;;;;;;5014144;28;20285;-83
2022/09/24 01:34:05;;;;;;;2.40;2.20;;;;;;;;;;5030386;28;20210;-83
2022/09/24 01:36:35;;;;;;;1.70;1.60;;;;;;;;;;5032194;28;20209;-83
2022/09/24 01:39:03;;;;;;;1.80;1.70;;;;;;;;;;5016048;28;20221;-83
2022/09/24 01:41:33;;;;;;;3.40;2.17;;;;;;;;;;5014357;28;20216;-82
2022/09/24 01:44:03;;;;;;;3.50;1.60;;;;;;;;;;5028674;28;20202;-83
2022/09/24 01:46:32;;;;;;;1.83;1.70;;;;;;;;;;5032262;28;20194;-83
2022/09/24 01:49:00;;;;;;;2.15;2.05;;;;;;;;;;5019171;28;20226;-83
2022/09/24 01:51:30;;;;;;;2.03;1.92;;;;;;;;;;5016102;28;20294;-83
2022/09/24 01:54:02;;;;;;;2.20;2.10;;;;;;;;;;5032952;28;20244;-83
2022/09/24 01:56:35;;;;;;;1.55;1.45;;;;;;;;;;5035677;28;20666;-83
2022/09/24 01:59:06;;;;;;;1.73;1.63;;;;;;;;;;5024711;28;20718;-83
2022/09/24 02:01:40;;;;;;;1.42;1.33;;;;;;;;;;5016274;28;20213;-83
2022/09/24 02:04:15;;;;;;;1.27;1.23;;;;;;;;;;5024926;28;20587;-83
2022/09/24 02:06:47;;;;;;;1.23;1.23;;;;;;;;;;5016445;28;20230;-83
2022/09/24 02:09:35;;;;;;;1.35;1.25;;;;;;;;;;5032744;28;20640;-83
2022/09/24 02:12:07;;;;;;;1.88;1.30;;;;;;;;;;5034610;28;20569;-83
2022/09/24 02:14:40;;;;;;;1.70;1.60;;;;;;;;;;5015568;28;20305;-83
2022/09/24 02:17:10;;;;;;;1.20;1.20;;;;;;;;;;5016088;28;20207;-84
2022/09/24 02:19:39;;;;;;;1.63;1.52;;;;;;;;;;5015675;28;20652;-83
2022/09/24 02:22:08;;;;;;;1.80;1.70;;;;;;;;;;5016501;28;20202;-84
2022/09/24 02:24:43;;;;;;;1.40;1.30;;;;;;;;;;5035491;28;20213;-84
2022/09/24 02:27:10;;;;;;;2.20;1.33;;;;;;;;;;5034644;28;20274;-84
2022/09/24 02:29:38;;;;;;;1.70;1.60;;;;;;;;;;5016746;28;20760;-82
2022/09/24 02:32:09;;;;;;;2.03;1.92;;;;;;;;;;5016129;28;20326;-83
2022/09/24 02:34:38;;;;;;;1.50;1.40;;;;;;;;;;5034685;28;20224;-83
2022/09/24 02:37:09;;;;;;;1.20;1.15;;;;;;;;;;5023295;28;20191;-84
2022/09/24 02:39:36;;;;;;;1.63;1.52;;;;;;;;;;5034487;28;20218;-83
2022/09/24 02:42:05;;;;;;;1.73;1.63;;;;;;;;;;5034740;28;20202;-83
2022/09/24 02:44:32;;;;;;;2.25;2.05;;;;;;;;;;5033668;28;20732;-84
2022/09/24 02:47:00;;;;;;;1.90;1.80;;;;;;;;;;5031947;28;20195;-83
2022/09/24 02:49:29;;;;;;;1.70;1.60;;;;;;;;;;5030473;28;20253;-83
2022/09/24 02:51:57;;;;;;;1.50;1.40;;;;;;;;;;5023693;28;20744;-82
2022/09/24 02:54:25;;;;;;;1.42;1.33;;;;;;;;;;5015168;28;20309;-83
2022/09/24 02:56:53;;;;;;;1.88;1.52;;;;;;;;;;5025815;28;20195;-83
2022/09/24 02:59:21;;;;;;;2.20;2.00;;;;;;;;;;5023806;28;20223;-83
2022/09/24 03:01:49;;;;;;;2.22;2.03;;;;;;;;;;5025862;28;20281;-83
2022/09/24 03:04:17;;;;;;;2.60;2.00;;;;;;;;;;5016228;28;20663;-82
2022/09/24 03:06:46;;;;;;;2.03;1.92;;;;;;;;;;5024817;28;20301;-83
2022/09/24 03:09:14;;;;;;;2.85;2.65;;;;;;;;;;5032232;28;20309;-83
2022/09/24 03:11:41;;;;;;;1.75;1.65;;;;;;;;;;5034149;28;20297;-82
2022/09/24 03:14:09;;;;;;;1.60;1.50;;;;;;;;;;5032372;28;20781;-83
2022/09/24 03:16:36;;;;;;;1.92;1.83;;;;;;;;;;5034004;28;20305;-83
2022/09/24 03:19:04;;;;;;;1.70;1.60;;;;;;;;;;5019756;28;20712;-83
2022/09/24 03:21:31;;;;;;;1.50;1.40;;;;;;;;;;5014475;28;20215;-83
2022/09/24 03:24:00;;;;;;;2.00;1.90;;;;;;;;;;5014321;28;20294;-83
2022/09/24 03:26:28;;;;;;;2.30;2.17;;;;;;;;;;5021811;28;20281;-82
2022/09/24 03:28:56;;;;;;;2.30;2.13;;;;;;;;;;5017881;28;20215;-82
2022/09/24 03:31:23;;;;;;;2.22;2.03;;;;;;;;;;5014347;28;20297;-82
2022/09/24 03:33:51;;;;;;;2.35;2.25;;;;;;;;;;5028821;28;20222;-81
2022/09/24 03:36:21;;;;;;;1.90;1.80;;;;;;;;;;5032893;28;20662;-82
2022/09/24 03:38:50;;;;;;;1.70;1.60;;;;;;;;;;5021232;28;20215;-82
2022/09/24 03:41:19;;;;;;;1.67;1.58;;;;;;;;;;5015235;28;20202;-82
2022/09/24 03:43:47;;;;;;;1.80;1.70;;;;;;;;;;5016333;28;20195;-82
2022/09/24 03:46:16;;;;;;;2.42;1.73;;;;;;;;;;5015584;28;20282;-82
2022/09/24 03:48:45;;;;;;;1.70;1.60;;;;;;;;;;5019694;28;20223;-82
2022/09/24 03:51:17;;;;;;;1.55;1.45;;;;;;;;;;5015058;28;20211;-82
2022/09/24 03:53:45;;;;;;;1.70;1.60;;;;;;;;;;5031962;28;20601;-82
2022/09/24 03:56:12;;;;;;;1.77;1.58;;;;;;;;;;5034371;28;20209;-82
2022/09/24 03:58:46;;;;;;;2.05;1.80;;;;;;;;;;5024131;28;20221;-82
2022/09/24 04:01:16;;;;;;;1.60;1.50;;;;;;;;;;5015228;28;20289;-83
2022/09/24 04:03:43;;;;;;;1.52;1.42;;;;;;;;;;5028822;28;20202;-82
2022/09/24 04:06:10;;;;;;;2.10;2.00;;;;;;;;;;5034412;28;20208;-81
2022/09/24 04:08:38;;;;;;;2.28;2.17;;;;;;;;;;5027110;28;20298;-83
2022/09/24 04:11:06;;;;;;;2.13;1.92;;;;;;;;;;5014582;28;20297;-82
2022/09/24 04:13:33;;;;;;;2.30;2.08;;;;;;;;;;5019232;28;20245;-82
2022/09/24 04:16:04;;;;;;;2.10;1.92;;;;;;;;;;5034747;28;20204;-82
2022/09/24 04:18:32;;;;;;;1.92;1.83;;;;;;;;;;5034746;28;20221;-82
2022/09/24 04:21:00;;;;;;;3.08;2.08;;;;;;;;;;5029600;28;20289;-82
2022/09/24 04:23:30;;;;;;;1.90;1.80;;;;;;;;;;5034701;28;20213;-83
2022/09/24 04:25:59;;;;;;;1.92;1.73;;;;;;;;;;5034935;28;20208;-82
2022/09/24 04:28:27;;;;;;;1.70;1.60;;;;;;;;;;5025632;28;20644;-82
2022/09/24 04:30:54;;;;;;;1.73;1.33;;;;;;;;;;5015115;28;20195;-81
2022/09/24 04:33:23;;;;;;;1.38;1.38;;;;;;;;;;5018176;28;20294;-82
2022/09/24 04:35:50;;;;;;;2.10;1.70;;;;;;;;;;5014704;28;20215;-83
2022/09/24 04:38:20;;;;;;;1.75;1.60;;;;;;;;;;5020494;28;20632;-81
2022/09/24 04:40:47;;;;;;;1.60;1.50;;;;;;;;;;5034399;28;20190;-82
2022/09/24 04:43:16;;;;;;;2.42;1.60;;;;;;;;;;5032873;28;20281;-82
2022/09/24 04:45:43;;;;;;;1.80;1.70;;;;;;;;;;5032572;28;20699;-82
2022/09/24 04:48:11;;;;;;;1.70;1.60;;;;;;;;;;5023724;28;20198;-82
2022/09/24 04:50:40;;;;;;;2.35;1.48;;;;;;;;;;5033683;28;20285;-82
2022/09/24 04:53:07;;;;;;;1.35;1.30;;;;;;;;;;5033458;28;20198;-82
2022/09/24 04:55:35;;;;;;;1.77;1.67;;;;;;;;;;5033524;28;20240;-81
2022/09/24 04:58:03;;;;;;;2.03;1.50;;;;;;;;;;5031301;28;20199;-82
2022/09/24 05:00:32;;;;;;;1.40;1.30;;;;;;;;;;5033500;28;20209;-83
2022/09/24 05:03:02;;;;;;;1.60;1.50;;;;;;;;;;5033674;28;20211;-82
2022/09/24 05:05:30;;;;;;;1.42;1.38;;;;;;;;;;5034097;28;20198;-81
2022/09/24 05:08:00;;;;;;;1.20;1.17;;;;;;;;;;5031754;28;20198;-81
2022/09/24 05:10:28;;;;;;;1.67;1.58;;;;;;;;;;5022315;28;20222;-82
2022/09/24 05:12:56;;;;;;;1.50;1.40;;;;;;;;;;5031739;28;20200;-82
2022/09/24 05:15:23;;;;;;;1.50;1.40;;;;;;;;;;5033061;28;20230;-83
2022/09/24 05:17:51;;;;;;;1.52;1.42;;;;;;;;;;5019905;28;20282;-82
2022/09/24 05:20:18;;;;;;;3.55;2.22;;;;;;;;;;5013226;28;20309;-81
2022/09/24 05:22:48;;;;;;;2.22;2.10;;;;;;;;;;5022350;28;20277;-81
2022/09/24 05:25:19;;;;;;;1.95;1.85;;;;;;;;;;5038455;28;20281;-82
2022/09/24 05:27:46;;;;;;;2.63;2.42;;;;;;;;;;5035970;28;20198;-82
2022/09/24 05:30:14;;;;;;;2.42;1.90;;;;;;;;;;5021663;28;20231;-82
2022/09/24 05:32:42;;;;;;;2.38;2.17;;;;;;;;;;5022696;28;20202;-83
2022/09/24 05:35:10;;;;;;;2.13;2.03;;;;;;;;;;5035656;28;20218;-82
2022/09/24 05:37:38;;;;;;;2.53;2.33;;;;;;;;;;5036679;28;20722;-81
2022/09/24 05:42:51;;;;;;;2.35;2.15;;;;;;;;;;5026859;28;20699;-80
2022/09/24 05:45:18;;;;;;;2.20;2.08;;;;;;;;;;5035805;28;20218;-81
2022/09/24 05:47:46;;;;;;;1.98;1.88;;;;;;;;;;5030419;28;20696;-80
2022/09/24 05:50:13;;;;;;;1.50;1.40;;;;;;;;;;5023776;28;20250;-80
2022/09/24 05:52:42;;;;;;;2.05;1.92;;;;;;;;;;5035149;28;20208;-80
2022/09/24 05:55:11;;;;;;;1.60;1.50;;;;;;;;;;5039651;28;20252;-80
2022/09/24 05:57:38;;;;;;;1.80;1.70;;;;;;;;;;5037663;28;20218;-80
2022/09/24 06:00:09;;;;;;;2.35;2.15;;;;;;;;;;5019613;28;20305;-80
2022/09/24 06:02:36;;;;;;;2.45;2.25;;;;;;;;;;5023356;28;20208;-80
2022/09/24 06:05:04;;;;;;;2.83;2.63;;;;;;;;;;5038358;28;20226;-80
2022/09/24 06:07:32;;;;;;;2.95;2.75;;;;;;;;;;5028335;28;20210;-80
2022/09/24 06:09:59;;;;;;;4.65;3.40;;;;;;;;;;5038036;28;20281;-80
2022/09/24 06:12:27;;;;;;;3.33;3.13;;;;;;;;;;5029273;28;20207;-80
2022/09/24 06:14:54;;;;;;;3.60;3.40;;;;;;;;;;5018529;28;20295;-80
2022/09/24 06:17:23;;;;;;;3.60;3.30;;;;;;;;;;5017830;28;20217;-81
2022/09/24 06:19:51;;;;;;;3.17;2.85;;;;;;;;;;5028974;28;20240;-80
2022/09/24 06:22:19;;;;;;;2.15;2.05;;;;;;;;;;5037994;28;20244;-81
2022/09/24 06:24:46;;;;;;;2.10;2.00;;;;;;;;;;5037854;28;20256;-81
2022/09/24 06:27:14;;;;;;;3.35;3.05;;;;;;;;;;5035710;28;20696;-81
2022/09/24 06:29:41;;;;;;;2.65;2.55;;;;;;;;;;5037605;28;20313;-82
2022/09/24 06:32:09;;;;;;;3.20;3.00;;;;;;;;;;5036844;28;20206;-83
2022/09/24 06:34:38;;;;;;;3.25;2.92;;;;;;;;;;5035722;28;20285;-82
2022/09/24 06:37:05;;;;;;;2.92;2.72;;;;;;;;;;5018403;28;20314;-82
2022/09/24 06:39:32;;;;;;;2.88;2.60;;;;;;;;;;5018540;28;20301;-82
2022/09/24 06:42:00;;;;;;;2.88;2.67;;;;;;;;;;5018796;28;20289;-82
2022/09/24 06:44:27;;;;;;;2.28;2.17;;;;;;;;;;5037296;28;20285;-82
2022/09/24 06:46:55;;;;;;;2.38;2.17;;;;;;;;;;5037841;28;20306;-81
2022/09/24 06:49:23;;;;;;;2.15;2.00;;;;;;;;;;5035113;28;20260;-81
2022/09/24 06:51:54;;;;;;;3.17;2.88;;;;;;;;;;5038083;28;20202;-80
2022/09/24 06:54:22;;;;;;;3.03;2.80;;;;;;;;;;5019677;28;20203;-81
2022/09/24 06:56:51;;;;;;;2.85;2.65;;;;;;;;;;5017967;28;20262;-81
2022/09/24 06:59:18;;;;;;;3.15;2.95;;;;;;;;;;5019019;28;20277;-80
2022/09/24 07:01:46;;;;;;;2.83;2.60;;;;;;;;;;5018465;28;20234;-81
2022/09/24 07:04:13;;;;;;;3.47;3.17;;;;;;;;;;5028960;28;20198;-81
2022/09/24 07:09:27;;;;;;;3.70;3.40;;;;;;;;;;5035224;28;20595;-81
2022/09/24 07:11:55;;;;;;;2.97;2.78;;;;;;;;;;5035444;28;20657;-81
2022/09/24 07:14:23;;;;;;;2.70;2.50;;;;;;;;;;5034024;28;20293;-81
2022/09/24 07:16:51;;;;;;;2.50;2.33;;;;;;;;;;5036237;28;20305;-81
2022/09/24 07:19:18;;;;;;;3.33;3.03;;;;;;;;;;5023894;28;20219;-81
2022/09/24 07:21:45;;;;;;;4.20;3.90;;;;;;;;;;5025354;28;20281;-81
2022/09/24 07:24:13;;;;;;;3.03;2.72;;;;;;;;;;5020312;28;20282;-81
2022/09/24 07:26:42;;;;;;;3.45;3.15;;;;;;;;;;5017546;28;20290;-81
2022/09/24 07:29:09;;;;;;;3.33;3.03;;;;;;;;;;5021109;28;20228;-81
2022/09/24 07:31:37;;;;;;;3.30;3.00;;;;;;;;;;5036125;28;20289;-81
2022/09/24 07:34:06;;;;;;;4.22;2.63;;;;;;;;;;5035819;28;20677;-81
2022/09/24 07:36:33;;;;;;;3.30;3.10;;;;;;;;;;5036640;28;20222;-80
2022/09/24 07:39:01;;;;;;;3.65;2.90;;;;;;;;;;5023131;28;20332;-82
2022/09/24 07:41:29;;;;;;;3.22;2.90;;;;;;;;;;5016499;28;20286;-81
2022/09/24 07:43:58;;;;;;;4.40;3.10;;;;;;;;;;5030458;28;20208;-82
2022/09/24 07:46:26;;;;;;;3.88;3.58;;;;;;;;;;5034804;28;20684;-81
2022/09/24 07:48:55;;;;;;;4.05;3.72;;;;;;;;;;5024347;28;20218;-81
2022/09/24 07:51:22;;;;;;;2.92;2.72;;;;;;;;;;5019699;28;20202;-81
2022/09/24 07:53:50;;;;;;;3.65;3.35;;;;;;;;;;5035970;28;20206;-81
2022/09/24 07:56:18;;;;;;;3.55;3.17;;;;;;;;;;5035540;28;20285;-81
2022/09/24 07:58:48;;;;;;;3.78;3.47;;;;;;;;;;5032981;28;20280;-82
2022/09/24 08:01:17;;;;;;;7.03;4.35;;;;;;;;;;5035227;28;20199;-82
2022/09/24 08:03:45;;;;;;;3.13;2.85;;;;;;;;;;5034261;28;20202;-82
2022/09/24 08:06:12;;;;;;;4.20;3.90;;;;;;;;;;5035263;28;20228;-81
2022/09/24 08:08:40;;;;;;;4.43;4.05;;;;;;;;;;5025727;28;20563;-81
2022/09/24 08:11:10;;;;;;;4.40;4.00;;;;;;;;;;5015034;28;20297;-81
2022/09/24 08:13:38;;;;;;;3.47;3.17;;;;;;;;;;5022599;28;20245;-82
2022/09/24 08:16:07;;;;;;;3.45;3.15;;;;;;;;;;5033913;28;20266;-82
2022/09/24 08:18:36;;;;;;;2.67;2.47;;;;;;;;;;5034348;28;20757;-82
2022/09/24 08:21:05;;;;;;;3.83;3.53;;;;;;;;;;5035639;28;20202;-82
2022/09/24 08:23:33;;;;;;;3.70;3.00;;;;;;;;;;5033347;28;20198;-81
2022/09/24 08:26:00;;;;;;;3.78;3.47;;;;;;;;;;5035857;28;20212;-83
2022/09/24 08:28:28;;;;;;;4.25;3.95;;;;;;;;;;5035384;28;20250;-82
2022/09/24 08:30:59;;;;;;;3.90;3.60;;;;;;;;;;5027849;28;20233;-83
2022/09/24 08:33:27;;;;;;;4.18;3.78;;;;;;;;;;5031125;28;20257;-84
2022/09/24 08:35:55;;;;;;;3.78;3.47;;;;;;;;;;5028829;28;20194;-83
2022/09/24 08:38:23;;;;;;;2.90;2.70;;;;;;;;;;5031228;28;20293;-83
2022/09/24 08:40:56;;;;;;;3.10;2.85;;;;;;;;;;5027225;28;20242;-83
2022/09/24 08:43:37;;;;;;;3.30;2.97;;;;;;;;;;5022163;28;20197;-83
2022/09/24 08:49:01;;;;;;;3.28;3.05;;;;;;;;;;5023877;28;20245;-84
2022/09/24 08:51:35;;;;;;;2.85;2.65;;;;;;;;;;5030713;28;20206;-83
2022/09/24 08:54:07;;;;;;;3.30;3.03;;;;;;;;;;5039228;28;20657;-83
2022/09/24 08:56:37;;;;;;;3.45;3.15;;;;;;;;;;5039493;28;20198;-84
2022/09/24 08:59:16;;;;;;;8.70;3.80;;;;;;;;;;5032639;28;20222;-84
2022/09/24 09:01:48;;;;;;;3.38;3.08;;;;;;;;;;5031907;28;20208;-84
2022/09/24 09:04:26;;;;;;;2.72;2.53;;;;;;;;;;5035462;28;20198;-84
2022/09/24 09:07:08;;;;;;;3.28;2.97;;;;;;;;;;5037354;28;20202;-84
2022/09/24 09:09:44;;;;;;;3.17;2.88;;;;;;;;;;5035757;28;20210;-84
2022/09/24 09:12:15;;;;;;;4.38;3.92;;;;;;;;;;5037680;28;20224;-84
2022/09/24 09:14:49;;;;;;;3.05;2.85;;;;;;;;;;5033095;28;20207;-83
2022/09/24 09:17:34;;;;;;;3.10;2.90;;;;;;;;;;5039189;28;20301;-83
2022/09/24 09:20:07;;;;;;;4.35;3.70;;;;;;;;;;5038434;28;20285;-83
2022/09/24 09:22:41;;;;;;;3.60;3.28;;;;;;;;;;5038847;28;20242;-84
2022/09/24 09:25:21;;;;;;;3.10;2.83;;;;;;;;;;5027138;28;20213;-84
2022/09/24 09:27:53;;;;;;;2.83;2.53;;;;;;;;;;5035594;28;20202;-83
2022/09/24 09:30:21;;;;;;;3.40;2.85;;;;;;;;;;5033911;28;20218;-83
2022/09/24 09:33:14;;;;;;;2.38;2.22;;;;;;;;;;5029254;28;20588;-82
2022/09/24 09:35:49;;;;;;;2.92;2.53;;;;;;;;;;5028226;28;20206;-83
2022/09/24 09:38:23;;;;;;;2.50;2.30;;;;;;;;;;5021735;28;20785;-82
2022/09/24 09:40:57;;;;;;;3.92;3.30;;;;;;;;;;5032591;28;20666;-82
2022/09/24 09:43:25;;;;;;;3.28;3.05;;;;;;;;;;5025675;28;20200;-82
2022/09/24 09:46:03;;;;;;;3.50;3.10;;;;;;;;;;5029131;28;20206;-83
2022/09/24 09:48:44;;;;;;;3.50;3.28;;;;;;;;;;5031922;28;20222;-83
2022/09/24 09:51:21;;;;;;;5.00;3.95;;;;;;;;;;5033283;28;20202;-82
2022/09/24 09:53:58;;;;;;;2.60;2.40;;;;;;;;;;5032867;28;20277;-83
2022/09/24 09:56:28;;;;;;;2.03;1.73;;;;;;;;;;5024337;28;20205;-83
2022/09/24 09:59:05;;;;;;;3.05;2.85;;;;;;;;;;5024519;28;20305;-82
2022/09/24 10:01:36;;;;;;;3.78;3.42;;;;;;;;;;5024155;28;20195;-82
2022/09/24 10:04:04;;;;;;;4.63;3.20;;;;;;;;;;5021286;28;20595;-83
2022/09/24 10:06:33;;;;;;;3.00;2.80;;;;;;;;;;5020561;28;20286;-83
2022/09/24 10:09:18;;;;;;;3.05;2.83;;;;;;;;;;5025489;28;20680;-82
2022/09/24 10:11:46;;;;;;;2.85;2.60;;;;;;;;;;5034048;28;20663;-82
2022/09/24 10:14:17;;;;;;;3.05;2.85;;;;;;;;;;5032997;28;20198;-82
2022/09/24 10:16:46;;;;;;;3.35;3.05;;;;;;;;;;5035514;28;20199;-81
2022/09/24 10:19:17;;;;;;;2.35;2.20;;;;;;;;;;5037244;28;20250;-82
2022/09/24 10:21:45;;;;;;;3.88;3.50;;;;;;;;;;5037651;28;20203;-83
2022/09/24 10:24:18;;;;;;;3.25;3.05;;;;;;;;;;5036670;28;20289;-85
2022/09/24 10:26:46;;;;;;;5.63;4.15;;;;;;;;;;5037143;28;20290;-83
2022/09/24 10:32:04;;;;;;;3.25;2.95;;;;;;;;;;5028289;28;20213;-82
2022/09/24 10:34:31;;;;;;;3.47;3.28;;;;;;;;;;5034846;28;20198;-84
2022/09/24 10:37:01;;;;;;;3.35;3.15;;;;;;;;;;5032181;28;20478;-84
2022/09/24 10:39:31;;;;;;;3.53;3.00;;;;;;;;;;5036942;28;20274;-83
2022/09/24 10:41:59;;;;;;;2.83;2.60;;;;;;;;;;5033806;28;20213;-84
2022/09/24 10:44:35;;;;;;;3.10;2.60;;;;;;;;;;5033639;28;20290;-84
2022/09/24 10:47:25;;;;;;;2.47;2.28;;;;;;;;;;5024914;28;20205;-84
2022/09/24 10:50:26;;;;;;;3.33;3.05;;;;;;;;;;5017414;28;20223;-84
2022/09/24 10:52:56;;;;;;;4.70;3.55;;;;;;;;;;5022701;28;20205;-82
2022/09/24 10:55:40;;;;;;;2.58;2.42;;;;;;;;;;5036180;28;20196;-84
2022/09/24 10:58:26;;;;;;;4.13;3.38;;;;;;;;;;5037346;28;20775;-83
2022/09/24 11:01:04;;;;;;;3.60;2.78;;;;;;;;;;5036155;28;20235;-83
2022/09/24 11:04:06;;;;;;;2.75;2.55;;;;;;;;;;5036275;28;20198;-84
2022/09/24 11:06:48;;;;;;;3.08;2.80;;;;;;;;;;5034715;28;20198;-84
2022/09/24 11:09:24;;;;;;;2.63;2.42;;;;;;;;;;5023235;28;20615;-83
2022/09/24 11:12:04;;;;;;;2.65;2.28;;;;;;;;;;5031696;28;20661;-83
2022/09/24 11:14:49;;;;;;;2.40;2.28;;;;;;;;;;5032068;28;20285;-83
2022/09/24 11:17:33;;;;;;;2.95;2.75;;;;;;;;;;5025483;28;20202;-83
2022/09/24 11:20:20;;;;;;;4.75;3.03;;;;;;;;;;5035642;28;20230;-82
2022/09/24 11:23:03;;;;;;;2.92;2.60;;;;;;;;;;5031010;28;20190;-81
2022/09/24 11:25:37;;;;;;;2.38;2.17;;;;;;;;;;5027674;28;20198;-81
2022/09/24 11:28:21;;;;;;;2.47;2.28;;;;;;;;;;5016842;28;20284;-82
2022/09/24 11:30:58;;;;;;;4.03;2.70;;;;;;;;;;5024270;28;20212;-81
2022/09/24 11:33:39;;;;;;;2.22;2.03;;;;;;;;;;5036820;28;20289;-82
2022/09/24 11:36:21;;;;;;;2.65;2.45;;;;;;;;;;5025645;28;20203;-81
2022/09/24 11:39:13;;;;;;;4.10;3.80;;;;;;;;;;5016635;28;20237;-83
2022/09/24 11:41:49;;;;;;;2.50;2.30;;;;;;;;;;5017006;28;20253;-82
2022/09/24 11:44:49;;;;;;;2.97;2.58;;;;;;;;;;5016766;28;20199;-80
2022/09/24 11:47:32;;;;;;;2.05;1.92;;;;;;;;;;5035159;28;20230;-81
2022/09/24 11:50:16;;;;;;;3.00;2.72;;;;;;;;;;5035342;28;20228;-82
2022/09/24 11:52:47;;;;;;;2.35;2.15;;;;;;;;;;5035061;28;20199;-83
2022/09/24 11:55:18;;;;;;;2.53;2.33;;;;;;;;;;5034361;28;20201;-81
2022/09/24 11:57:53;;;;;;;3.42;2.97;;;;;;;;;;5035436;28;20205;-82
2022/09/24 12:00:22;;;;;;;3.13;2.92;;;;;;;;;;5033982;28;20231;-83
2022/09/24 12:02:52;;;;;;;4.13;3.20;;;;;;;;;;5037436;28;20293;-84
2022/09/24 12:05:28;;;;;;;2.65;2.45;;;;;;;;;;5033540;28;20195;-83
2022/09/24 12:08:00;;;;;;;2.85;2.65;;;;;;;;;;5015854;28;20211;-83
2022/09/24 12:10:33;;;;;;;2.60;2.40;;;;;;;;;;5016440;28;20230;-83
2022/09/24 12:13:12;;;;;;;2.42;2.10;;;;;;;;;;5014152;28;20754;-83
2022/09/24 12:15:49;;;;;;;3.80;2.58;;;;;;;;;;5015551;28;20585;-82
2022/09/24 12:18:21;;;;;;;2.72;2.53;;;;;;;;;;5014869;28;20206;-83
2022/09/24 12:20:52;;;;;;;3.83;3.17;;;;;;;;;;5015545;28;20268;-84
2022/09/24 12:23:26;;;;;;;3.92;3.50;;;;;;;;;;5015009;28;20203;-82
2022/09/24 12:25:54;;;;;;;3.38;3.08;;;;;;;;;;5025776;28;20199;-81
2022/09/24 12:34:07;;;;;;;5.47;3.85;;;;;;;;;;5034672;28;20217;-83
2022/09/24 12:36:52;;;;;;;3.95;3.58;;;;;;;;;;5018097;28;20206;-82
2022/09/24 12:39:22;;;;;;;2.65;2.45;;;;;;;;;;5015880;28;20234;-82
2022/09/24 12:41:55;;;;;;;3.70;2.92;;;;;;;;;;5021766;28;20227;-83
2022/09/24 12:44:32;;;;;;;2.22;2.03;;;;;;;;;;5032662;28;20202;-83
2022/09/24 12:47:01;;;;;;;3.17;2.97;;;;;;;;;;5033851;28;20207;-83
2022/09/24 12:49:33;;;;;;;3.45;3.17;;;;;;;;;;5032462;28;20222;-82
2022/09/24 12:52:03;;;;;;;3.05;2.80;;;;;;;;;;5029696;28;20206;-82
2022/09/24 12:54:33;;;;;;;6.78;4.18;;;;;;;;;;5016007;28;20318;-83
2022/09/24 12:57:13;;;;;;;3.95;3.65;;;;;;;;;;5022389;28;20195;-83
2022/09/24 12:59:50;;;;;;;4.50;3.70;;;;;;;;;;5020289;28;20228;-82
2022/09/24 13:02:23;;;;;;;3.92;3.63;;;;;;;;;;5026692;28;20684;-83
2022/09/24 13:05:15;;;;;;;3.13;2.70;;;;;;;;;;5022324;28;20206;-82
2022/09/24 13:07:43;;;;;;;2.58;2.38;;;;;;;;;;5015430;28;20201;-80
2022/09/24 13:10:24;;;;;;;3.90;3.13;;;;;;;;;;5034394;28;20222;-84
2022/09/24 13:12:53;;;;;;;4.93;3.42;;;;;;;;;;5014741;28;20195;-83
2022/09/24 13:15:27;;;;;;;5.10;4.53;;;;;;;;;;5015168;28;20282;-83
2022/09/24 13:18:23;;;;;;;4.07;3.20;;;;;;;;;;5021408;28;20198;-83
2022/09/24 13:21:00;;;;;;;2.67;2.33;;;;;;;;;;5032132;28;20291;-84
2022/09/24 13:23:43;;;;;;;3.40;3.13;;;;;;;;;;5015480;28;20206;-83
2022/09/24 13:26:26;;;;;;;2.88;2.67;;;;;;;;;;5021278;28;20636;-83
2022/09/24 13:28:57;;;;;;;3.00;2.70;;;;;;;;;;5030160;28;20214;-83
2022/09/24 13:31:47;;;;;;;3.60;3.30;;;;;;;;;;5019475;28;20278;-83
2022/09/24 13:34:22;;;;;;;2.17;2.00;;;;;;;;;;5012296;28;20207;-82
2022/09/24 13:36:57;;;;;;;2.00;1.80;;;;;;;;;;5029468;28;20197;-81
2022/09/24 13:39:31;;;;;;;2.20;2.10;;;;;;;;;;5033878;28;20229;-82
2022/09/24 13:42:05;;;;;;;2.38;2.00;;;;;;;;;;5027409;28;20202;-81
2022/09/24 13:44:36;;;;;;;3.20;3.00;;;;;;;;;;5035537;28;20210;-81
2022/09/24 13:47:12;;;;;;;2.80;2.58;;;;;;;;;;5036272;28;20580;-83
2022/09/24 13:49:44;;;;;;;5.10;3.80;;;;;;;;;;5021479;28;20218;-83
2022/09/24 13:52:17;;;;;;;5.30;4.55;;;;;;;;;;5037036;28;20201;-84
2022/09/24 13:54:50;;;;;;;2.58;2.38;;;;;;;;;;5039166;28;20553;-83
2022/09/24 13:57:23;;;;;;;2.50;1.90;;;;;;;;;;5038595;28;20764;-81
2022/09/24 14:00:01;;;;;;;4.35;3.95;;;;;;;;;;5035288;28;20254;-82
2022/09/24 14:02:33;;;;;;;3.60;3.30;;;;;;;;;;5037801;28;20198;-83
2022/09/24 14:05:02;;;;;;;2.80;2.60;;;;;;;;;;5036051;28;20670;-83
2022/09/24 14:07:30;;;;;;;2.78;2.50;;;;;;;;;;5028648;28;20190;-82
2022/09/24 14:10:13;;;;;;;2.53;2.33;;;;;;;;;;5029594;28;20302;-83
2022/09/24 14:12:40;;;;;;;4.63;4.18;;;;;;;;;;5019799;28;20309;-82
2022/09/24 14:15:16;;;;;;;3.92;3.63;;;;;;;;;;5026917;28;20481;-83
2022/09/24 14:17:43;;;;;;;3.47;3.17;;;;;;;;;;5035385;28;20241;-82
2022/09/24 14:20:15;;;;;;;5.35;4.40;;;;;;;;;;5037503;28;20289;-84
2022/09/24 14:22:45;;;;;;;3.50;3.20;;;;;;;;;;5031598;28;20198;-82
2022/09/24 14:25:17;;;;;;;4.20;3.90;;;;;;;;;;5031700;28;20290;-83
2022/09/24 14:27:47;;;;;;;5.00;4.50;;;;;;;;;;5031548;28;20257;-83
2022/09/24 14:30:20;;;;;;;6.63;5.88;;;;;;;;;;5019223;28;20655;-83
2022/09/24 14:32:53;;;;;;;5.68;5.10;;;;;;;;;;5023578;28;20190;-83
2022/09/24 14:35:27;;;;;;;6.50;5.07;;;;;;;;;;5036401;28;20198;-84
2022/09/24 14:38:01;;;;;;;5.45;4.95;;;;;;;;;;5035153;28;20281;-83
2022/09/24 14:40:28;;;;;;;5.05;4.55;;;;;;;;;;5038060;28;20356;-83
2022/09/24 14:42:58;;;;;;;4.88;4.38;;;;;;;;;;5033471;28;20282;-83
2022/09/24 14:45:33;;;;;;;6.03;5.53;;;;;;;;;;5018811;28;20214;-83
2022/09/24 14:48:01;;;;;;;6.40;4.80;;;;;;;;;;5024538;28;20198;-83
2022/09/24 14:50:37;;;;;;;5.38;4.88;;;;;;;;;;5020204;28;20219;-83
2022/09/24 14:53:14;;;;;;;5.13;4.63;;;;;;;;;;5018543;28;20207;-83
2022/09/24 14:55:45;;;;;;;6.95;5.43;;;;;;;;;;5016433;28;20294;-84
2022/09/24 14:58:36;;;;;;;5.68;4.32;;;;;;;;;;5017696;28;20203;-84
2022/09/24 15:01:07;;;;;;;4.75;4.22;;;;;;;;;;5030816;28;20951;-84
2022/09/24 15:03:40;;;;;;;4.50;4.10;;;;;;;;;;5029888;28;20674;-83
2022/09/24 15:06:19;;;;;;;4.75;4.35;;;;;;;;;;5037867;28;20195;-82
2022/09/24 15:08:59;;;;;;;5.38;4.05;;;;;;;;;;5038728;28;20226;-83
2022/09/24 15:11:29;;;;;;;4.07;3.67;;;;;;;;;;5026557;28;20195;-84
2022/09/24 15:14:02;;;;;;;5.05;4.43;;;;;;;;;;5021801;28;20639;-83
2022/09/24 15:16:33;;;;;;;4.60;4.15;;;;;;;;;;5036734;28;20230;-84
2022/09/24 15:19:18;;;;;;;4.93;4.53;;;;;;;;;;5030106;28;20251;-83
2022/09/24 15:21:48;;;;;;;5.13;4.63;;;;;;;;;;5018940;28;20218;-83
2022/09/24 15:24:16;;;;;;;5.18;4.72;;;;;;;;;;5019017;28;20207;-84
2022/09/24 15:26:46;;;;;;;4.72;4.18;;;;;;;;;;5031420;28;20206;-83
2022/09/24 15:29:23;;;;;;;4.47;4.13;;;;;;;;;;5038658;28;20694;-84
2022/09/24 15:31:51;;;;;;;4.82;3.75;;;;;;;;;;5030959;28;20195;-82